Victor Giraldo

Recruteur - Millonarios
19 Août 2027
Jeudi
Processus

Personnalité

Adaptabilité (3) Ambition (4) Controverse (6) Loyauté (9) Pression (3) Professionnalisme (16) Sportivité (15) Tempérament (16)

Profil

Style d'entraînement Démocratique
Diplôme Continental B
Détermination 14
Gestion des joueurs 10
Motivation 11
Discipline 8
Satisfaction professionnelle
100%
Fatigue
0%
Rôle Recruteur
Salaire 98.8K p/s
Contrat 14.03.2029

Performance

Comportement Bon
Efficacité de l'entraînement
45%
Développement des joueurs
70%
Prévention des blessures
55%
Mise en place tactique
35%

Événements récents

A participé à une réunion de recrutement 7j
A recommandé une cible de transfert 7j
A participé à une réunion de recrutement 14j
A recommandé une cible de transfert 14j
A participé à une réunion de recrutement 14j
A participé à une réunion de recrutement 21j
A recommandé une cible de transfert 21j
A participé à une réunion de recrutement 28j

Suivi en cours

192
Joueur Club Statut Capacité Confiance Observé Dernière observation Dernier vote
Diego Martínez Jaguares Actif 124 / 124 44% 2 / 2m 21.07.2027 -
Brandon Caicedo Jaguares Actif 109 / 109 30% 1 / 1m 21.07.2027 -
Mohamed Belloumi Hull City Actif 146 / 143 40% 1 31.05.2027 -
Morgan Whittaker Middlesbrough Actif 135 / 130 40% 1 31.05.2027 -
Jack McGlynn Stoke City Actif 128 / 140 40% 1 31.05.2027 -
Filip Marschall Stevenage Actif 122 / 108 40% 4 29.05.2027 -
Jamie Cumming Oxford United Actif 135 / 134 40% 2 28.05.2027 -
Sergio Barlocco Trento Actif 109 / 111 40% 1 28.05.2027 -
Kostantis Tzolakis Hull City Actif 138 / 138 40% 1 28.05.2027 -
Daniel Iversen Preston Actif 128 / 130 40% 4 27.05.2027 -
Caoimhin Kelleher Brentford Actif 151 / 150 40% 3 27.05.2027 -
Lorenzo Palmisani Frosinone Actif 126 / 131 40% 4 27.05.2027 -
Pol Tristán Barnsley Actif 112 / 113 40% 2 26.05.2027 -
Samuele Perisan Audace Cerignola Actif 115 / 112 40% 2 26.05.2027 -
Nicolas Madsen Queens Park Rangers Actif 138 / 122 40% 1 25.05.2027 -
Di'Shon Bernard Sheffield Wednesday Actif 114 / 114 40% 1 25.05.2027 -
Radek Vítek Middlesbrough Actif 133 / 147 40% 3 24.05.2027 -
Quinten Timber Crystal Palace Actif 157 / 153 40% 5 24.05.2027 -
Welington Southampton Actif 140 / 131 40% 2 24.05.2027 -
Justin Bijlow Genoa Actif 151 / 145 40% 1 24.05.2027 -
Max Bird Birmingham Actif 137 / 139 40% 4 23.05.2027 -
Bobby Thomas Coventry City Actif 139 / 127 40% 2 23.05.2027 -
Harry Clarke Preston Actif 137 / 123 40% 5 23.05.2027 -
Francesco D'Alterio Ternana Actif 115 / 106 40% 4 21.05.2027 -
Aidan Morris Middlesbrough Actif 122 / 136 40% 4 20.05.2027 -
Tariq Lamptey Queens Park Rangers Actif 139 / 136 40% 2 20.05.2027 -
Murphy Cooper Plymouth Argyle Actif 114 / 118 40% 3 19.05.2027 -
Alfie Whiteman Newport County Actif 100 / 101 40% 3 15.05.2027 -
Zach Hemming Chesterfield Actif 104 / 115 40% 1 15.05.2027 -
James Trafford Leeds United Actif 153 / 148 40% 2 13.05.2027 -
Andrea Zaccagno Torres Actif 105 / 106 40% 1 13.05.2027 -
Shea Charles Southampton Actif 144 / 144 40% 4 12.05.2027 -
Ousmane Diomande Nottingham Forest Actif 145 / 162 40% 3 12.05.2027 -
Ryan Sessegnon Fulham Actif 150 / 148 40% 5 10.05.2027 -
Alessandro Buongiorno Sassuolo Actif 158 / 157 40% 2 10.05.2027 -
Kristoffer Lund Birmingham Actif 127 / 128 40% 3 10.05.2027 -
Will Dennis Milton Keynes Dons Actif 102 / 112 40% 3 09.05.2027 -
Luke McNally Bristol City Actif 126 / 124 40% 1 08.05.2027 -
Balázs Tóth Blackburn Rovers Actif 133 / 122 40% 1 06.05.2027 -
Riccardo Gagno Vicenza Actif 118 / 124 40% 2 05.05.2027 -
Arijanet Murić Sassuolo Actif 149 / 146 40% 1 02.05.2027 -
Jacob Widell Zetterström Derby County Actif 139 / 131 40% 1 02.05.2027 -
Robin Roefs Sunderland Actif 153 / 152 40% 2 30.04.2027 -
Leif Davis Ipswich Town Actif 132 / 144 40% 2 28.04.2027 -
Juan Mosquera Sheffield Wednesday Actif 133 / 120 40% 1 28.04.2027 -
Adrien Truffert Bournemouth Actif 153 / 153 40% 7 27.04.2027 Observer
Adam Wharton Crystal Palace Actif 151 / 151 40% 4 27.04.2027 -
Williams Manyama SuperSport United Actif 115 / 111 40% 3 27.04.2027 -
Milan van Ewijk Mansfield Town Actif 125 / 137 40% 4 25.04.2027 -
Lewis Ferguson Bologna Actif 139 / 145 40% 1 25.04.2027 -
Florentino Luís Ipswich Town Actif 149 / 143 40% 9 21.04.2027 -
Callum Doyle Wrexham Actif 126 / 127 40% 4 21.04.2027 -
Lucas Da Cunha Como Actif 137 / 152 40% 1 21.04.2027 -
Elia Boseggia Novara Actif 107 / 114 40% 1 21.04.2027 -
Imrân Louza Watford Actif 139 / 132 40% 1 19.04.2027 -
Bradley Mabunda SuperSport United Actif 121 / 113 40% 1 19.04.2027 -
Michele Cerofolini Bari Actif 122 / 121 40% 1 16.04.2027 -
Brian De Keersmaecker Oxford United Actif 115 / 121 40% 3 15.04.2027 -
Yussif Saidu Zaragoza Actif 127 / 122 40% 3 15.04.2027 -
Lukas Jensen Millwall Actif 119 / 113 40% 1 14.04.2027 -
Jordan Amissah Burton Albion Actif 113 / 102 40% 1 14.04.2027 -
Mandla Erasmus SuperSport United Actif 116 / 118 40% 5 04.04.2027 -
Christian Krasnodar Actif 139 / 131 40% 5 03.04.2027 -
Ronnie Edwards Queens Park Rangers Actif 133 / 125 40% 1 02.04.2027 -
Josh Tymon Swansea City Actif 120 / 121 40% 2 01.04.2027 -
Gabriel Gudmundsson Leeds United Actif 134 / 136 40% 1 01.04.2027 -
Andrea Carboni Monza Actif 125 / 134 40% 1 31.03.2027 -
Yehor Yarmoliuk Brentford Actif 149 / 145 40% 2 27.03.2027 -
Adam Randell Bristol City Actif 124 / 125 40% 1 26.03.2027 -
Nathan Collins Brentford Actif 150 / 148 40% 4 24.03.2027 -
Ethan Galbraith Swansea City Actif 140 / 129 40% 2 22.03.2027 -
Derry Murkin Derby County Actif 132 / 134 40% 2 21.03.2027 -
Nicolò Rovella Lazio Actif 146 / 143 40% 1 21.03.2027 -
Murillo Nottingham Forest Actif 144 / 146 40% 1 10.03.2027 -
Juanlu Bournemouth Actif 148 / 146 40% 4 08.03.2027 -
Japhet Tanganga Sheffield United Actif 136 / 132 40% 1 07.03.2027 -
Ilay Camara Anderlecht Actif 136 / 138 40% 2 01.03.2027 -
Will Fish Cardiff City Actif 117 / 122 40% 1 01.03.2027 -
Michael Kayode Brentford Actif 144 / 145 40% 2 28.02.2027 -
Aaron Hickey Brentford Actif 140 / 140 40% 1 26.02.2027 -
Israel Reyes CSKA Moscow Actif 141 / 131 40% 8 24.02.2027 -
Óscar Mingueza Crystal Palace Actif 151 / 156 40% 5 24.02.2027 -
Nicolás Fernández Mercau Shakhtar Actif 140 / 132 40% 2 24.02.2027 -
Tomás Ribeiro Cultural Leonesa Actif 114 / 113 40% 3 22.02.2027 -
Ethan Pye Stockport County Actif 113 / 117 40% 1 21.02.2027 -
Noah Sadiki Sunderland Actif 146 / 151 40% 1 14.02.2027 -
Gustavo Mantuan Zenit Actif 134 / 134 40% 1 08.02.2027 -
Jacques Ekomié Wrexham Actif 125 / 131 40% 2 04.02.2027 -
Toby Collyer West Bromwich Albion Actif 136 / 132 40% 3 04.02.2027 -
Dara O'Shea Ipswich Town Actif 142 / 134 40% 2 30.01.2027 -
Álex Centelles Levski Actif 118 / 124 40% 1 22.01.2027 -
Rubens Dinamo Moscow Actif 134 / 127 40% 1 19.01.2027 -
Robert-Jan Vanwesemael Sint-Truiden Actif 128 / 112 40% 1 19.01.2027 -
Marlon Gomes Shakhtar Actif 141 / 142 40% 1 16.01.2027 -
Victor Parada Spartak Moscow Actif 131 / 126 40% 1 15.01.2027 -
Nazareno Colombo Racing Club Actif 130 / 123 40% 1 15.01.2027 -
Kevin Amaro Racing Genk Actif 124 / 129 40% 1 11.01.2027 -
Pelle Mattsson Norwich City Actif 129 / 127 40% 1 08.01.2027 -
Jhon Velásquez Fortaleza CEIF Actif 102 / 114 72% 1 02.12.2026 Approuver
Franco Ibarra Rosario Central Actif 125 / 125 40% 1 01.12.2026 -
Augusto Schott Talleres Actif 120 / 124 40% 1 01.12.2026 -
Yousef Salech Cardiff City Actif 121 / 117 40% 1 30.11.2026 -
Samuel Essende Young Boys Actif 124 / 130 40% 1 30.11.2026 -
Santiago González Tigre Actif 133 / 129 40% 4 28.11.2026 -
Georges-Kévin Nkoudou Al-Diriyah Actif 140 / 129 40% 1 28.11.2026 -
Lewis Morgan SuperSport United Actif 128 / 116 40% 3 27.11.2026 -
Joaquín García Vélez Actif 126 / 127 40% 4 26.11.2026 -
Ulises Ortegoza Talleres Actif 121 / 125 40% 2 24.11.2026 -
Rubén Duarte Legia Actif 132 / 127 40% 2 24.11.2026 -
Alex Luna Instituto Actif 121 / 128 40% 2 24.11.2026 -
Marco Asensio Fenerbahce Actif 149 / 150 40% 3 22.11.2026 -
Gastón Lodico Racing Club Actif 122 / 125 40% 1 22.11.2026 -
Randall Rodríguez River Plate Actif 109 / 117 40% 2 21.11.2026 -
Diego Rossi Monterrey Actif 131 / 130 40% 4 20.11.2026 -
Ozziel Herrera Tigres Actif 118 / 124 40% 4 20.11.2026 -
Luis Romo Guadalajara Actif 130 / 131 40% 5 20.11.2026 -
Oussama Idrissi Pachuca Actif 131 / 132 40% 5 19.11.2026 -
Franco Pardo Santos Laguna Actif 126 / 121 40% 2 18.11.2026 -
Víctor Guzmán Monterrey Actif 137 / 131 40% 1 18.11.2026 -
Aarón Molinas Defensa y Justicia Actif 131 / 123 40% 1 18.11.2026 -
Alan Cervantes Club America Actif 132 / 122 40% 1 18.11.2026 -
Jesús Ricardo Angulo Toluca Actif 130 / 128 40% 3 15.11.2026 -
Orbelín Pineda Monterrey Actif 142 / 147 40% 3 15.11.2026 -
Tiago Palacios Estudiantes Actif 122 / 134 40% 3 15.11.2026 -
Richard Ledezma Guadalajara Actif 128 / 132 40% 3 14.11.2026 -
José Castillo Guadalajara Actif 124 / 125 40% 1 14.11.2026 -
Santiago Núñez Estudiantes Actif 132 / 127 40% 2 13.11.2026 -
Kevin Álvarez Club America Actif 125 / 124 40% 2 13.11.2026 -
Nathan Silva Monterrey Actif 127 / 125 40% 1 13.11.2026 -
Carlos Rodríguez Cruz Azul Actif 133 / 144 40% 3 12.11.2026 -
Leandro Lozano Boca Juniors Actif 120 / 121 40% 1 12.11.2026 -
Felipe Peña Biafore Lanús Actif 132 / 124 40% 4 11.11.2026 -
Rômulo Tigres Actif 125 / 114 40% 1 11.11.2026 -
Richard Martinez Veracruz Actif 122 / 133 40% 3 10.11.2026 -
Facundo Miño Deportivo Riestra Actif 118 / 125 40% 1 10.11.2026 -
Siro Rosané Estudiantes Actif 120 / 117 40% 1 10.11.2026 -
Gerardo Arteaga Monterrey Actif 119 / 135 40% 7 08.11.2026 -
Damián Fernández Defensa y Justicia Actif 126 / 129 40% 1 08.11.2026 -
Ricardo Chávez Monterrey Actif 122 / 128 40% 1 08.11.2026 -
Erick Reyes Toluca Actif 131 / 138 40% 1 07.11.2026 Plus d'infos
Alejandro Zendejas Club America Actif 135 / 131 40% 5 06.11.2026 -
Juan Pablo Domínguez Leon Actif 129 / 134 40% 2 05.11.2026 -
Nicolás Castro Toluca Actif 137 / 118 40% 2 04.11.2026 -
Iván Villalba Independiente Rivadavia Actif 118 / 119 40% 1 03.11.2026 -
Marcelino Moreno Lanús Actif 125 / 130 40% 1 02.11.2026 -
Pedro Vite Pumas UNAM Actif 130 / 116 40% 1 29.10.2026 -
Jesús Angulo Tigres Actif 137 / 135 40% 1 28.10.2026 -
Joaquim Tigres Actif 131 / 133 40% 1 28.10.2026 -
Salvador Reyes Leon Actif 129 / 129 40% 1 27.10.2026 -
Jaminton Campaz Rosario Central Actif 133 / 120 40% 1 26.10.2026 -
Fernando Valenzuela Queretaro Actif 124 / 133 40% 3 22.10.2026 -
Carlos Gruezo Santos Laguna Actif 131 / 118 40% 2 22.10.2026 -
Beau Reus Waasland-Beveren Actif 130 / 127 40% 3 21.10.2026 -
Emanuel Coronel Rosario Central Actif 133 / 129 40% 1 21.10.2026 -
Willer Ditta Cruz Azul Actif 134 / 133 40% 1 21.10.2026 -
Manuel Rios La Equidad Actif 101 / 101 40% 2 18.10.2026 -
Killian Cahill Leyton Orient Actif 108 / 114 40% 2 18.10.2026 -
Ángel Maciel Tacuarembo Actif 105 / 104 40% 1 17.10.2026 -
Nahuel Galardi Maipú Actif 105 / 109 40% 1 16.10.2026 -
Tomáš Frühwald Bohemians 1905 Actif 110 / 115 40% 1 13.10.2026 -
Vincent Edafe Warri Wolves Actif 85 / 89 40% 1 13.10.2026 -
Miguel Acosta Argentinos Juniors Actif 113 / 105 40% 1 11.10.2026 -
Jorge Sánchez Atlas Actif 122 / 135 40% 2 09.10.2026 -
Gino Santilli Banfield Actif 109 / 115 40% 1 09.10.2026 -
Facundo Vila Estudiantes Actif 101 / 105 40% 1 07.10.2026 -
Duvan Rangel La Equidad Actif 132 / 138 40% 2 06.10.2026 -
Brian Rodríguez Club America Actif 127 / 128 40% 2 06.10.2026 -
Álvaro Angulo Pumas UNAM Actif 134 / 131 40% 4 06.10.2026 -
Federico Varese Racing Actif 109 / 116 40% 1 30.09.2026 -
Fernando Beltrán Leon Actif 120 / 126 40% 1 28.09.2026 -
Gustavo Calderari Colegiales Actif 92 / 102 40% 1 23.09.2026 -
Bryan González Guadalajara Actif 123 / 136 40% 1 16.09.2026 -
Ángel González Libertad Actif 110 / 111 40% 1 13.09.2026 -
Leonardo Gonzalez Cortulua Actif 126 / 120 40% 1 11.09.2026 -
Lucas Souto Defensa y Justicia Actif 118 / 121 40% 1 08.09.2026 -
Omar Campos Cruz Azul Actif 130 / 116 40% 1 08.09.2026 -
Sergio Reguilón Inter Miami CF Actif 146 / 130 40% 2 07.09.2026 -
Aliou Dieng Valencia Actif 131 / 134 40% 1 07.09.2026 -
Adalberto Carrasquilla Pumas UNAM Actif 131 / 128 40% 1 05.09.2026 -
Agustín Palavecino Cruz Azul Actif 143 / 133 40% 2 04.09.2026 -
Gonzalo Piovi Cruz Azul Actif 124 / 125 40% 2 30.08.2026 -
Allan Saint-Maximin Charlotte Football Club Actif 139 / 142 40% 1 27.08.2026 -
Víctor Guzmán Toluca Actif 135 / 128 40% 1 25.08.2026 -
Juninho Pumas UNAM Actif 120 / 134 40% 4 24.08.2026 -
Paxten Aaronson Colorado Rapids Actif 128 / 126 40% 1 24.08.2026 -
Leonardo Borja La Equidad Actif 150 / 150 40% 1 22.08.2026 -
Cristian Roldan Seattle Sounders Actif 133 / 120 40% 1 22.08.2026 -
Ryan Gauld Vancouver Whitecaps Actif 127 / 140 40% 1 20.08.2026 -
Efraín Álvarez Guadalajara Actif 122 / 122 40% 1 16.08.2026 -
Rodrigo Echeverría Leon Actif 121 / 131 40% 1 16.08.2026 -
Diego Lainez Tigres Actif 119 / 133 40% 1 11.08.2026 -
Pablo Durán Celta Actif 135 / 133 40% 1 01.08.2026 -